createdAt,value
2022-12-20T00:01:11.219Z,6.50
2022-12-20T00:03:39.958Z,6.50
2022-12-20T00:06:10.989Z,6.50
2022-12-20T00:08:39.768Z,6.50
2022-12-20T00:11:08.801Z,6.50
2022-12-20T00:13:37.345Z,6.60
2022-12-20T00:16:07.543Z,6.60
2022-12-20T00:18:36.016Z,6.60
2022-12-20T00:21:05.631Z,6.60
2022-12-20T00:23:36.147Z,6.60
2022-12-20T00:26:05.694Z,6.70
2022-12-20T00:28:34.245Z,6.70
2022-12-20T00:31:02.785Z,6.70
2022-12-20T00:33:30.972Z,6.70
2022-12-20T00:35:59.472Z,6.70
2022-12-20T00:38:28.442Z,6.70
2022-12-20T00:41:05.674Z,6.70
2022-12-20T00:43:34.646Z,6.80
2022-12-20T00:46:03.173Z,6.70
2022-12-20T00:48:32.661Z,6.70
2022-12-20T00:51:01.861Z,6.70
2022-12-20T00:53:30.784Z,6.70
2022-12-20T00:55:59.549Z,6.70
2022-12-20T00:58:29.343Z,6.70
2022-12-20T01:00:58.418Z,6.70
2022-12-20T01:03:28.099Z,6.80
2022-12-20T01:05:58.234Z,6.80
2022-12-20T01:08:26.970Z,6.80
2022-12-20T01:11:02.316Z,6.90
2022-12-20T01:13:33.117Z,6.90
2022-12-20T01:16:05.459Z,6.90
2022-12-20T01:18:34.076Z,6.90
2022-12-20T01:21:03.716Z,7.00
2022-12-20T01:23:31.778Z,7.00
2022-12-20T01:26:00.829Z,7.10
2022-12-20T01:28:30.134Z,7.10
2022-12-20T01:31:00.022Z,7.10
2022-12-20T01:33:28.103Z,7.10
2022-12-20T01:35:57.708Z,7.10
2022-12-20T01:38:26.168Z,7.10
2022-12-20T01:40:54.881Z,7.20
2022-12-20T01:43:23.219Z,7.20
2022-12-20T01:45:51.497Z,7.20
2022-12-20T01:48:26.203Z,7.20
2022-12-20T01:50:54.887Z,7.30
2022-12-20T01:53:25.078Z,7.30
2022-12-20T01:55:53.558Z,7.30
2022-12-20T01:58:22.355Z,7.30
2022-12-20T02:00:50.752Z,7.30
2022-12-20T02:03:20.231Z,7.30
2022-12-20T02:05:48.326Z,7.30
2022-12-20T02:08:20.495Z,7.30
2022-12-20T02:11:06.983Z,7.30
2022-12-20T02:13:44.991Z,7.40
2022-12-20T02:16:20.797Z,7.40
2022-12-20T02:18:59.793Z,7.40
2022-12-20T02:21:36.036Z,7.40
2022-12-20T02:24:43.914Z,7.40
2022-12-20T02:27:49.962Z,7.50
2022-12-20T02:30:21.874Z,7.50
2022-12-20T02:32:56.174Z,7.50
2022-12-20T02:35:27.839Z,7.50
2022-12-20T02:37:58.041Z,7.50
2022-12-20T02:40:29.576Z,7.50
2022-12-20T02:43:00.633Z,7.50
2022-12-20T02:45:34.585Z,7.60
2022-12-20T02:48:06.022Z,7.50
2022-12-20T02:50:39.280Z,7.60
2022-12-20T02:53:09.196Z,7.60
2022-12-20T02:55:47.025Z,7.60
2022-12-20T02:58:24.396Z,7.60
2022-12-20T03:00:57.668Z,7.60
2022-12-20T03:03:26.805Z,7.60
2022-12-20T03:05:56.709Z,7.60
2022-12-20T03:08:25.588Z,7.60
2022-12-20T03:10:54.865Z,7.60
2022-12-20T03:13:25.018Z,7.70
2022-12-20T03:16:00.606Z,7.70
2022-12-20T03:18:28.776Z,7.70
2022-12-20T03:20:56.787Z,7.70
2022-12-20T03:23:24.945Z,7.70
2022-12-20T03:25:52.985Z,7.70
2022-12-20T03:28:29.698Z,7.80
2022-12-20T03:31:00.151Z,7.80
2022-12-20T03:33:28.407Z,7.80
2022-12-20T03:35:59.675Z,7.80
2022-12-20T03:38:27.699Z,7.80
2022-12-20T03:40:55.686Z,7.90
2022-12-20T03:43:24.009Z,7.90
2022-12-20T03:45:52.131Z,7.90
2022-12-20T03:48:22.291Z,7.90
2022-12-20T03:50:50.319Z,7.90
2022-12-20T03:53:18.405Z,7.90
2022-12-20T03:55:46.632Z,7.90
2022-12-20T03:58:15.691Z,7.90
2022-12-20T04:00:43.787Z,7.90
2022-12-20T04:03:35.077Z,7.90
2022-12-20T04:06:03.211Z,7.90
2022-12-20T04:08:31.258Z,7.90
2022-12-20T04:11:17.648Z,8.00
2022-12-20T04:13:53.888Z,8.00
2022-12-20T04:16:24.229Z,8.00
2022-12-20T04:18:54.635Z,8.00
2022-12-20T04:21:23.800Z,8.00
2022-12-20T04:23:53.825Z,8.00
2022-12-20T04:26:22.708Z,8.00
2022-12-20T04:28:51.723Z,8.00
2022-12-20T04:31:24.161Z,7.90
2022-12-20T04:33:55.224Z,7.90
2022-12-20T04:36:23.821Z,7.90
2022-12-20T04:38:53.946Z,7.90
2022-12-20T04:41:24.816Z,7.90
2022-12-20T04:43:59.657Z,7.90
2022-12-20T04:46:35.917Z,7.90
2022-12-20T04:49:06.630Z,7.90
2022-12-20T04:51:37.957Z,7.90
2022-12-20T04:54:06.192Z,7.90
2022-12-20T04:56:43.169Z,7.90
2022-12-20T04:59:15.024Z,7.90
2022-12-20T05:01:45.981Z,7.90
2022-12-20T05:04:20.270Z,7.80
2022-12-20T05:06:48.278Z,7.90
2022-12-20T05:09:16.671Z,7.90
2022-12-20T05:11:44.773Z,7.90
2022-12-20T05:14:13.625Z,7.80
2022-12-20T05:16:41.743Z,7.90
2022-12-20T05:19:10.166Z,7.90
2022-12-20T05:21:59.823Z,7.90
2022-12-20T05:24:45.356Z,7.80
2022-12-20T05:27:25.317Z,7.90
2022-12-20T05:29:53.710Z,7.80
2022-12-20T05:32:22.462Z,7.90
2022-12-20T05:34:50.824Z,7.80
2022-12-20T05:37:22.034Z,7.90
2022-12-20T05:39:50.850Z,7.90
2022-12-20T05:42:22.871Z,7.90
2022-12-20T05:44:53.255Z,7.90
2022-12-20T05:47:22.952Z,7.90
2022-12-20T05:49:59.334Z,7.90
2022-12-20T05:52:29.123Z,7.90
2022-12-20T05:54:57.400Z,7.90
2022-12-20T05:57:26.867Z,7.90
2022-12-20T05:59:54.904Z,7.90
2022-12-20T06:02:25.780Z,7.90
2022-12-20T06:05:03.052Z,7.90
2022-12-20T06:07:33.182Z,8.00
2022-12-20T06:10:01.774Z,8.00
2022-12-20T06:12:48.099Z,8.00
2022-12-20T06:15:17.412Z,8.00
2022-12-20T06:17:45.789Z,8.10
2022-12-20T06:20:14.632Z,8.10
2022-12-20T06:22:52.709Z,8.10
2022-12-20T06:25:21.043Z,8.10
2022-12-20T06:27:49.111Z,8.10
2022-12-20T06:30:18.536Z,8.20
2022-12-20T06:33:06.882Z,8.20
2022-12-20T06:35:35.234Z,8.20
2022-12-20T06:38:05.102Z,8.20
2022-12-20T06:40:35.956Z,8.20
2022-12-20T06:43:04.837Z,8.30
2022-12-20T06:45:39.308Z,8.30
2022-12-20T06:48:09.937Z,8.30
2022-12-20T06:50:39.227Z,8.30
2022-12-20T06:53:09.389Z,8.40
2022-12-20T06:55:37.415Z,8.40
2022-12-20T06:58:06.726Z,8.40
2022-12-20T07:00:35.141Z,8.40
2022-12-20T07:03:03.265Z,8.40
2022-12-20T07:05:31.476Z,8.40
2022-12-20T07:07:59.803Z,8.30
2022-12-20T07:10:29.429Z,8.30
2022-12-20T07:12:57.511Z,8.30
2022-12-20T07:15:25.544Z,8.30
2022-12-20T07:17:54.134Z,8.30
2022-12-20T07:20:22.254Z,8.30
2022-12-20T07:22:50.460Z,8.30
2022-12-20T07:25:18.643Z,8.30
2022-12-20T07:27:50.701Z,8.30
2022-12-20T07:30:20.297Z,8.30
2022-12-20T07:32:48.481Z,8.30
2022-12-20T07:35:17.134Z,8.30
2022-12-20T07:37:45.138Z,8.30
2022-12-20T07:40:14.674Z,8.30
2022-12-20T07:42:48.219Z,8.30
2022-12-20T07:45:18.423Z,8.30
2022-12-20T07:47:46.497Z,8.30
2022-12-20T07:50:15.153Z,8.40
2022-12-20T07:52:45.753Z,8.40
2022-12-20T07:55:15.561Z,8.40
2022-12-20T07:57:47.069Z,8.40
2022-12-20T08:00:16.345Z,8.40
2022-12-20T08:02:50.210Z,8.40
2022-12-20T08:05:18.377Z,8.40
2022-12-20T08:07:51.030Z,8.50
2022-12-20T08:10:21.853Z,8.40
2022-12-20T08:12:50.699Z,8.50
2022-12-20T08:15:19.480Z,8.50
2022-12-20T08:17:48.974Z,8.50
2022-12-20T08:20:17.167Z,8.60
2022-12-20T08:22:45.252Z,8.60
2022-12-20T08:25:13.370Z,8.60
2022-12-20T08:27:41.396Z,8.60
2022-12-20T08:30:10.836Z,8.60
2022-12-20T08:32:39.097Z,8.60
2022-12-20T08:35:09.308Z,8.70
2022-12-20T08:37:37.365Z,8.70
2022-12-20T08:40:07.658Z,8.70
2022-12-20T08:42:35.661Z,8.80
2022-12-20T08:45:05.903Z,8.80
2022-12-20T08:47:33.915Z,8.80
2022-12-20T08:50:02.096Z,8.80
2022-12-20T08:52:31.665Z,8.90
2022-12-20T08:55:01.748Z,8.90
2022-12-20T08:57:30.279Z,8.90
2022-12-20T08:59:58.257Z,9.00
2022-12-20T09:02:26.442Z,9.00
2022-12-20T09:04:54.521Z,9.00
2022-12-20T09:07:22.520Z,9.00
2022-12-20T09:09:51.892Z,9.10
2022-12-20T09:12:19.910Z,9.10
2022-12-20T09:14:47.980Z,9.20
2022-12-20T09:17:16.001Z,9.10
2022-12-20T09:19:43.981Z,9.20
2022-12-20T09:22:12.021Z,9.20
2022-12-20T09:24:40.192Z,9.20
2022-12-20T09:27:09.542Z,9.20
2022-12-20T09:29:37.523Z,9.20
2022-12-20T09:32:05.954Z,9.20
2022-12-20T09:34:34.004Z,9.20
2022-12-20T09:37:02.168Z,9.20
2022-12-20T09:39:30.425Z,9.10
2022-12-20T09:41:59.353Z,9.10
2022-12-20T09:44:32.211Z,9.10
2022-12-20T09:47:10.561Z,9.10
2022-12-20T09:49:44.026Z,9.10
2022-12-20T09:52:34.316Z,9.20
2022-12-20T09:55:15.412Z,9.20
2022-12-20T09:57:55.873Z,9.20
2022-12-20T10:00:25.437Z,9.20
2022-12-20T10:03:01.993Z,9.20
2022-12-20T10:05:41.788Z,9.20
2022-12-20T10:08:17.436Z,9.30
2022-12-20T10:10:57.731Z,9.30
2022-12-20T10:13:38.909Z,9.30
2022-12-20T10:16:23.178Z,9.30
2022-12-20T10:19:03.527Z,9.40
2022-12-20T10:21:39.935Z,9.40
2022-12-20T10:24:15.260Z,9.40
2022-12-20T10:26:43.815Z,9.50
2022-12-20T10:29:12.236Z,9.60
2022-12-20T10:31:41.693Z,9.70
2022-12-20T10:34:10.017Z,9.80
2022-12-20T10:36:38.767Z,9.90
2022-12-20T10:39:09.385Z,10.00
2022-12-20T10:41:49.949Z,10.00
2022-12-20T10:44:21.272Z,10.00
2022-12-20T10:46:54.061Z,10.00
2022-12-20T10:49:29.747Z,10.10
2022-12-20T10:52:00.572Z,10.10
2022-12-20T10:54:32.666Z,10.00
2022-12-20T10:57:02.936Z,10.00
2022-12-20T10:59:35.550Z,10.10
2022-12-20T11:02:34.671Z,10.10
2022-12-20T11:05:22.685Z,10.20
2022-12-20T11:08:33.773Z,10.10
2022-12-20T11:10:44.493Z,10.20
2022-12-20T11:13:23.133Z,10.10
2022-12-20T11:15:55.438Z,10.10
2022-12-20T11:18:37.070Z,10.10
2022-12-20T11:21:27.724Z,10.10
2022-12-20T11:24:03.645Z,10.20
2022-12-20T11:26:43.284Z,10.20
2022-12-20T11:29:26.215Z,10.20
2022-12-20T11:32:04.451Z,10.20
2022-12-20T11:34:43.835Z,10.30
2022-12-20T11:37:20.861Z,10.30
2022-12-20T11:40:01.860Z,10.30
2022-12-20T11:42:38.868Z,10.40
2022-12-20T11:45:16.402Z,10.40
2022-12-20T11:48:03.775Z,10.40
2022-12-20T11:50:50.455Z,10.40
2022-12-20T11:53:23.993Z,10.30
2022-12-20T11:55:55.464Z,10.30
2022-12-20T11:58:28.187Z,10.20
2022-12-20T12:01:00.155Z,10.10
2022-12-20T12:03:35.636Z,10.10
2022-12-20T12:06:08.556Z,10.00
2022-12-20T12:08:44.564Z,9.90
2022-12-20T12:11:55.842Z,9.80
2022-12-20T12:14:08.185Z,9.80
2022-12-20T12:16:40.481Z,9.80
2022-12-20T12:19:12.330Z,9.80
2022-12-20T12:21:47.560Z,9.70
2022-12-20T12:24:24.052Z,9.70
2022-12-20T12:26:53.897Z,9.70
2022-12-20T12:29:23.167Z,9.70
2022-12-20T12:31:55.673Z,9.60
2022-12-20T12:34:37.417Z,9.60
2022-12-20T12:37:30.204Z,9.60
2022-12-20T12:40:22.695Z,9.60
2022-12-20T12:43:24.437Z,9.60
2022-12-20T12:45:57.373Z,9.60
2022-12-20T12:48:31.893Z,9.60
2022-12-20T12:51:02.470Z,9.60
2022-12-20T12:53:37.462Z,9.50
2022-12-20T12:56:46.860Z,9.60
2022-12-20T12:59:42.267Z,9.50
2022-12-20T13:02:53.079Z,9.50
2022-12-20T13:05:36.777Z,9.50
2022-12-20T13:08:15.773Z,9.50
2022-12-20T13:11:14.192Z,9.40
2022-12-20T13:13:42.229Z,9.40
2022-12-20T13:16:48.247Z,9.40
2022-12-20T13:19:17.116Z,9.40
2022-12-20T13:21:48.318Z,9.40
2022-12-20T13:24:50.274Z,9.40
2022-12-20T13:27:32.125Z,9.40
2022-12-20T13:30:30.536Z,9.30
2022-12-20T13:33:24.911Z,9.30
2022-12-20T13:36:01.498Z,9.30
2022-12-20T13:39:04.595Z,9.30
2022-12-20T13:41:41.989Z,9.30
2022-12-20T13:44:35.835Z,9.30
2022-12-20T13:47:13.364Z,9.30
2022-12-20T13:49:44.310Z,9.30
2022-12-20T13:52:25.162Z,9.30
2022-12-20T13:54:56.656Z,9.30
2022-12-20T13:57:30.466Z,9.30
2022-12-20T14:00:06.817Z,9.30
2022-12-20T14:02:41.538Z,9.30
2022-12-20T14:05:16.991Z,9.30
2022-12-20T14:07:47.542Z,9.30
2022-12-20T14:10:20.750Z,9.20
2022-12-20T14:12:51.333Z,9.20
2022-12-20T14:15:26.516Z,9.20
2022-12-20T14:17:54.764Z,9.20
2022-12-20T14:20:26.756Z,9.20
2022-12-20T14:23:04.697Z,9.20
2022-12-20T14:25:39.029Z,9.20
2022-12-20T14:28:21.541Z,9.20
2022-12-20T14:30:56.814Z,9.20
2022-12-20T14:33:31.479Z,9.20
2022-12-20T14:36:08.143Z,9.30
2022-12-20T14:38:36.200Z,9.20
2022-12-20T14:41:04.316Z,9.20
2022-12-20T14:43:35.933Z,9.20
2022-12-20T14:46:19.186Z,9.20
2022-12-20T14:48:47.750Z,9.20
2022-12-20T14:51:22.265Z,9.20
2022-12-20T14:53:53.210Z,9.20
2022-12-20T14:56:31.288Z,9.20
2022-12-20T14:59:14.457Z,9.30
2022-12-20T15:01:45.131Z,9.20
2022-12-20T15:04:25.300Z,9.20
2022-12-20T15:06:53.884Z,9.20
2022-12-20T15:09:22.397Z,9.20
2022-12-20T15:11:52.255Z,9.20
2022-12-20T15:14:29.668Z,9.20
2022-12-20T15:16:59.340Z,9.20
2022-12-20T15:19:27.742Z,9.30
2022-12-20T15:21:56.157Z,9.20
2022-12-20T15:24:27.462Z,9.20
2022-12-20T15:26:56.369Z,9.20
2022-12-20T15:29:26.071Z,9.20
2022-12-20T15:32:00.832Z,9.20
2022-12-20T15:34:34.490Z,9.30
2022-12-20T15:37:03.010Z,9.30
2022-12-20T15:39:31.253Z,9.30
2022-12-20T15:42:02.231Z,9.20
2022-12-20T15:44:32.106Z,9.30
2022-12-20T15:47:00.486Z,9.30
2022-12-20T15:49:33.151Z,9.20
2022-12-20T15:52:01.288Z,9.30
2022-12-20T15:54:31.361Z,9.30
2022-12-20T15:57:02.915Z,9.30
2022-12-20T16:02:23.429Z,9.30
2022-12-20T16:04:52.927Z,9.30
2022-12-20T16:07:20.949Z,9.30
2022-12-20T16:09:49.117Z,9.30
2022-12-20T16:12:19.190Z,9.30
2022-12-20T16:14:47.450Z,9.30
2022-12-20T16:17:15.851Z,9.30
2022-12-20T16:19:44.538Z,9.30
2022-12-20T16:22:17.014Z,9.30
2022-12-20T16:24:45.061Z,9.30
2022-12-20T16:27:13.068Z,9.30
2022-12-20T16:29:42.034Z,9.20
2022-12-20T16:32:15.579Z,9.30
2022-12-20T16:34:43.905Z,9.20
2022-12-20T16:37:12.716Z,9.20
2022-12-20T16:39:42.188Z,9.20
2022-12-20T16:42:14.683Z,9.20
2022-12-20T16:44:44.738Z,9.20
2022-12-20T16:47:13.547Z,9.20
2022-12-20T16:49:44.597Z,9.20
2022-12-20T16:52:20.594Z,9.20
2022-12-20T16:54:50.180Z,9.30
2022-12-20T16:57:18.222Z,9.30
2022-12-20T16:59:46.253Z,9.30
2022-12-20T17:02:23.751Z,9.30
2022-12-20T17:04:52.209Z,9.30
2022-12-20T17:07:20.211Z,9.30
2022-12-20T17:12:35.084Z,9.30
2022-12-20T17:15:04.751Z,9.30
2022-12-20T17:17:32.799Z,9.30
2022-12-20T17:20:00.877Z,9.30
2022-12-20T17:22:28.916Z,9.30
2022-12-20T17:24:58.313Z,9.30
2022-12-20T17:27:26.359Z,9.30
2022-12-20T17:29:54.708Z,9.30
2022-12-20T17:32:24.323Z,9.30
2022-12-20T17:34:53.800Z,9.30
2022-12-20T17:37:21.936Z,9.30
2022-12-20T17:39:49.997Z,9.30
2022-12-20T17:42:19.346Z,9.30
2022-12-20T17:44:47.383Z,9.30
2022-12-20T17:47:17.002Z,9.30
2022-12-20T17:49:45.048Z,9.30
2022-12-20T17:52:15.470Z,9.30
2022-12-20T17:54:43.683Z,9.30
2022-12-20T17:57:15.195Z,9.30
2022-12-20T17:59:44.940Z,9.30
2022-12-20T18:02:22.343Z,9.30
2022-12-20T18:04:50.896Z,9.30
2022-12-20T18:07:19.123Z,9.30
2022-12-20T18:09:48.696Z,9.30
2022-12-20T18:12:16.942Z,9.30
2022-12-20T18:14:48.678Z,9.30
2022-12-20T18:17:17.481Z,9.30
2022-12-20T18:19:45.661Z,9.30
2022-12-20T18:22:15.067Z,9.30
2022-12-20T18:24:43.128Z,9.30
2022-12-20T18:27:11.298Z,9.30
2022-12-20T18:29:39.655Z,9.20
2022-12-20T18:32:09.066Z,9.30
2022-12-20T18:34:37.220Z,9.30
2022-12-20T18:37:05.546Z,9.30
2022-12-20T18:39:34.009Z,9.30
2022-12-20T18:42:02.159Z,9.30
2022-12-20T18:44:30.919Z,9.30
2022-12-20T18:46:58.935Z,9.30
2022-12-20T18:49:28.401Z,9.30
2022-12-20T18:51:56.528Z,9.30
2022-12-20T18:54:24.502Z,9.30
2022-12-20T18:56:52.658Z,9.30
2022-12-20T18:59:21.240Z,9.30
2022-12-20T19:01:49.427Z,9.30
2022-12-20T19:04:24.041Z,9.40
2022-12-20T19:06:54.644Z,9.30
2022-12-20T19:09:23.287Z,9.30
2022-12-20T19:11:56.609Z,9.40
2022-12-20T19:14:25.874Z,9.40
2022-12-20T19:16:53.952Z,9.40
2022-12-20T19:19:22.206Z,9.40
2022-12-20T19:21:50.238Z,9.30
2022-12-20T19:24:19.617Z,9.30
2022-12-20T19:26:47.646Z,9.40
2022-12-20T19:29:16.408Z,9.40
2022-12-20T19:31:45.730Z,9.30
2022-12-20T19:34:15.109Z,9.30
2022-12-20T19:36:44.402Z,9.30
2022-12-20T19:39:17.311Z,9.30
2022-12-20T19:42:06.807Z,9.30
2022-12-20T19:44:35.500Z,9.30
2022-12-20T19:47:06.441Z,9.30
2022-12-20T19:49:35.385Z,9.30
2022-12-20T19:52:03.673Z,9.30
2022-12-20T19:54:31.687Z,9.30
2022-12-20T19:57:01.063Z,9.30
2022-12-20T19:59:30.628Z,9.40
2022-12-20T20:01:58.834Z,9.40
2022-12-20T20:04:27.224Z,9.40
2022-12-20T20:06:56.365Z,9.30
2022-12-20T20:09:24.511Z,9.30
2022-12-20T20:11:53.039Z,9.30
2022-12-20T20:14:22.656Z,9.30
2022-12-20T20:16:52.925Z,9.30
2022-12-20T20:19:21.459Z,9.30
2022-12-20T20:21:50.350Z,9.30
2022-12-20T20:24:18.794Z,9.30
2022-12-20T20:26:46.830Z,9.30
2022-12-20T20:29:14.826Z,9.20
2022-12-20T20:31:44.253Z,9.20
2022-12-20T20:34:12.545Z,9.20
2022-12-20T20:36:42.708Z,9.20
2022-12-20T20:39:10.825Z,9.30
2022-12-20T20:41:39.547Z,9.30
2022-12-20T20:44:07.589Z,9.30
2022-12-20T20:46:35.641Z,9.30
2022-12-20T20:49:05.843Z,9.30
2022-12-20T20:51:33.971Z,9.30
2022-12-20T20:54:01.959Z,9.30
2022-12-20T20:56:30.034Z,9.30
2022-12-20T20:59:05.089Z,9.40
2022-12-20T21:01:35.423Z,9.30
2022-12-20T21:04:05.643Z,9.30
2022-12-20T21:06:40.440Z,9.30
2022-12-20T21:09:08.822Z,9.30
2022-12-20T21:11:37.466Z,9.30
2022-12-20T21:14:05.579Z,9.40
2022-12-20T21:16:34.253Z,9.40
2022-12-20T21:19:03.836Z,9.40
2022-12-20T21:21:32.366Z,9.30
2022-12-20T21:24:00.419Z,9.30
2022-12-20T21:26:28.451Z,9.30
2022-12-20T21:29:00.955Z,9.40
2022-12-20T21:31:31.092Z,9.40
2022-12-20T21:33:59.288Z,9.30
2022-12-20T21:36:28.812Z,9.30
2022-12-20T21:38:58.285Z,9.30
2022-12-20T21:41:28.536Z,9.30
2022-12-20T21:43:57.864Z,9.30
2022-12-20T21:46:27.473Z,9.30
2022-12-20T21:48:56.191Z,9.30
2022-12-20T21:51:25.431Z,9.30
2022-12-20T21:53:56.244Z,9.40
2022-12-20T21:56:26.039Z,9.40
2022-12-20T21:58:54.416Z,9.40
2022-12-20T22:01:24.866Z,9.40
2022-12-20T22:03:55.364Z,9.40
2022-12-20T22:06:23.656Z,9.30
2022-12-20T22:08:52.214Z,9.40
2022-12-20T22:11:21.759Z,9.40
2022-12-20T22:13:51.134Z,9.40
2022-12-20T22:16:21.875Z,9.40
2022-12-20T22:18:51.424Z,9.30
2022-12-20T22:21:21.166Z,9.40
2022-12-20T22:23:49.957Z,9.30
2022-12-20T22:26:22.079Z,9.30
2022-12-20T22:28:52.396Z,9.40
2022-12-20T22:31:21.442Z,9.40
2022-12-20T22:33:49.669Z,9.30
2022-12-20T22:36:18.264Z,9.30
2022-12-20T22:38:46.384Z,9.40
2022-12-20T22:41:16.477Z,9.40
2022-12-20T22:43:46.562Z,9.50
2022-12-20T22:46:16.461Z,9.40
2022-12-20T22:48:45.387Z,9.30
2022-12-20T22:51:15.045Z,9.30
2022-12-20T22:53:43.412Z,9.40
2022-12-20T22:56:11.885Z,9.40
2022-12-20T22:58:40.486Z,9.30
2022-12-20T23:01:12.581Z,9.30
2022-12-20T23:03:41.387Z,9.20
2022-12-20T23:06:13.054Z,9.20
2022-12-20T23:08:41.121Z,9.30
2022-12-20T23:11:34.605Z,9.30
2022-12-20T23:14:20.767Z,9.50
2022-12-20T23:16:50.389Z,9.50
2022-12-20T23:19:18.463Z,9.60
2022-12-20T23:22:03.783Z,9.70
2022-12-20T23:24:31.770Z,9.70
2022-12-20T23:26:59.814Z,9.60
2022-12-20T23:29:27.831Z,9.50
2022-12-20T23:31:57.297Z,9.50
2022-12-20T23:34:25.482Z,9.40
2022-12-20T23:36:53.474Z,9.40
2022-12-20T23:39:21.462Z,9.50
2022-12-20T23:41:49.468Z,9.50
2022-12-20T23:44:17.438Z,9.50
2022-12-20T23:46:45.468Z,9.60
2022-12-20T23:49:14.848Z,9.70
2022-12-20T23:51:42.870Z,9.70
2022-12-20T23:54:12.238Z,9.60
2022-12-20T23:56:40.275Z,9.60
2022-12-20T23:59:08.413Z,9.40
